Pagina principale
METAR-TAF:

METAR-TAF

Aeroporti :

Palermo, Italia

Aeroporto di Palermo-Punta Raisi

latitudine: 38-11N, longitudine: 013-06E, altezza: 21 m

Osservazione

Il bollettino è stato emesso 40 minuti fa, alle 08:50 UTC
Vento 5 kt da ovest/nord-ovest
Temperature 22°C
Umidità 65%
Pressione 1018 hPa
Visibilità 10 km o più
nessuna nube inferiore a 1500 m e nessun cumulonembo

METAR: LICJ 290850Z 29005KT CAVOK 22/15 Q1018

Ora: 11:30 (09:30 UTC)

Previsione

Il bollettino è stato emesso 4 ore e 30 minuti fa, alle 05:00 UTC
Previsione valida dal 29 alle 06 UTC al 30 alle 06 UTC
Vento 5 kt da direzioni variabili
Visibilità 10 km o più
nessuna nube inferiore a 1500 m e nessun cumulonembo
Evoluzione graduale
dal 29 alle 08 UTC al 29 alle 10 UTC
Vento 12 kt da nord/nord-est
Evoluzione graduale
dal 29 alle 18 UTC al 29 alle 20 UTC
Vento 5 kt da direzioni variabili

TAF: LICJ 290500Z 2906/3006 VRB05KT CAVOK BECMG 2908/2910 03012KT BECMG 2918/2920 VRB05KT

Osservazioni e previsioni meteorologiche di più di 4000 aeroporti (messaggi METAR e TAF).

Le stazioni disponibili sono rappresentate dai dischi gialli e rossi sulla carta.

Puntare il mouse per vedere il nome della stazione.

Clicca sopra per visualizzare le osservazioni e previsioni meteorologiche.

Per cambiare la mappa : fare clic sui pulsanti verdi con una croce nera per ingrandire, il pulsante verde con un trattino per diminuire, o sulla freccia verde per le mappe adiacenti.


METAR-TAF: